Terminal Aerodrome Forecast
Issued by NWS

Current Version | Previous Version | Graphics & Text | Print | Product List | Glossary On
Versions: 1 2 3 4 5 6 7 8 9 10 11 12 13 14 15 16 17 18 19
000
FTUS41 KILN 201736
TAFLCK
TAF
KLCK 201736Z 2018/2118 22012G21KT P6SM OVC016
     FM202000 23010KT P6SM BKN025
     FM210200 17005KT P6SM OVC015
     FM210800 18005KT 5SM BR OVC007
     FM211400 19010KT P6SM BKN012
      AMD NOT SKED=

USA.gov is the U.S. government's official web portal to all federal, state and local government web resources and services.